Time;durP1;ratioP1;P1;durP2;ratioP2;P2;SDS_P1;SDS_P2;PMS_P1;PMS_P2;Temp;Humidity;BMP_temperature;BMP_pressure;BME280_temperature;BME280_humidity;BME280_pressure;Samples;Min_cycle;Max_cycle;Signal;HPM_P1;HPM_P2
2022/11/22 00:00:36;;;;;;;34.22;13.30;;;;;;;;;;5016262;28;20365;-81
2022/11/22 00:03:02;;;;;;;30.17;12.13;;;;;;;;;;5002923;28;20073;-81
2022/11/22 00:05:28;;;;;;;29.83;11.70;;;;;;;;;;5008120;28;20037;-81
2022/11/22 00:07:54;;;;;;;25.65;11.23;;;;;;;;;;4996650;28;20468;-81
2022/11/22 00:10:20;;;;;;;29.83;11.70;;;;;;;;;;5015274;28;20030;-80
2022/11/22 00:12:46;;;;;;;25.65;11.02;;;;;;;;;;5016274;28;20456;-80
2022/11/22 00:15:12;;;;;;;33.80;12.90;;;;;;;;;;5010446;28;20033;-80
2022/11/22 00:17:38;;;;;;;33.75;12.80;;;;;;;;;;5008632;28;20034;-81
2022/11/22 00:20:05;;;;;;;33.83;15.43;;;;;;;;;;5002655;28;20046;-81
2022/11/22 00:22:32;;;;;;;31.20;12.50;;;;;;;;;;5015881;28;20033;-81
2022/11/22 00:24:58;;;;;;;30.83;13.48;;;;;;;;;;4996655;28;20465;-81
2022/11/22 00:27:24;;;;;;;32.35;12.65;;;;;;;;;;4998112;28;20034;-81
2022/11/22 00:29:50;;;;;;;29.65;12.45;;;;;;;;;;5015771;28;20036;-81
2022/11/22 00:32:16;;;;;;;29.65;12.52;;;;;;;;;;5002684;28;20027;-81
2022/11/22 00:34:42;;;;;;;29.33;13.38;;;;;;;;;;5015881;28;20026;-81
2022/11/22 00:37:08;;;;;;;26.30;11.60;;;;;;;;;;5002562;28;20026;-81
2022/11/22 00:39:34;;;;;;;31.70;12.55;;;;;;;;;;5006610;28;20447;-81
2022/11/22 00:42:00;;;;;;;21.55;10.07;;;;;;;;;;5008950;28;20029;-81
2022/11/22 00:44:26;;;;;;;35.47;13.00;;;;;;;;;;4995886;28;20042;-81
2022/11/22 00:46:52;;;;;;;23.67;9.10;;;;;;;;;;5001092;28;20072;-81
2022/11/22 00:49:18;;;;;;;23.05;9.75;;;;;;;;;;5006083;28;20026;-81
2022/11/22 00:51:44;;;;;;;19.27;9.80;;;;;;;;;;4995863;28;20033;-81
2022/11/22 00:54:10;;;;;;;21.73;9.98;;;;;;;;;;4996282;28;20022;-81
2022/11/22 00:56:36;;;;;;;21.02;9.18;;;;;;;;;;5009977;28;20056;-81
2022/11/22 00:59:02;;;;;;;20.42;9.25;;;;;;;;;;4995593;28;20084;-81
2022/11/22 01:01:28;;;;;;;25.65;9.57;;;;;;;;;;5011156;28;20134;-81
2022/11/22 01:03:54;;;;;;;16.40;8.23;;;;;;;;;;5004892;28;20030;-81
2022/11/22 01:06:20;;;;;;;29.40;12.32;;;;;;;;;;5015169;28;20029;-81
2022/11/22 01:08:47;;;;;;;22.52;10.50;;;;;;;;;;5015002;28;20026;-81
2022/11/22 01:11:14;;;;;;;21.70;9.18;;;;;;;;;;5015223;28;20014;-81
2022/11/22 01:13:40;;;;;;;20.25;9.27;;;;;;;;;;5015082;28;20026;-81
2022/11/22 01:16:25;;;;;;;25.70;10.70;;;;;;;;;;5014860;28;20026;-81
2022/11/22 01:18:51;;;;;;;21.95;10.13;;;;;;;;;;5001214;28;20042;-81
2022/11/22 01:21:17;;;;;;;28.33;11.65;;;;;;;;;;4995555;28;20056;-81
2022/11/22 01:23:43;;;;;;;22.20;9.98;;;;;;;;;;4995261;28;20468;-81
2022/11/22 01:26:09;;;;;;;22.95;10.38;;;;;;;;;;4995605;28;20061;-81
2022/11/22 01:28:35;;;;;;;21.45;9.90;;;;;;;;;;5006551;28;20108;-81
2022/11/22 01:31:01;;;;;;;24.80;9.55;;;;;;;;;;5014858;28;20025;-81
2022/11/22 01:33:28;;;;;;;24.38;9.50;;;;;;;;;;5002252;28;20022;-81
2022/11/22 01:35:54;;;;;;;22.23;10.38;;;;;;;;;;4999216;28;20022;-81
2022/11/22 01:38:20;;;;;;;19.33;8.45;;;;;;;;;;5013583;28;20351;-80
2022/11/22 01:40:46;;;;;;;21.77;9.30;;;;;;;;;;5014641;28;20033;-81
2022/11/22 01:43:19;;;;;;;27.65;9.18;;;;;;;;;;5013103;28;20052;-80
2022/11/22 01:45:46;;;;;;;20.50;8.98;;;;;;;;;;4993570;28;20113;-81
2022/11/22 01:48:17;;;;;;;23.13;10.38;;;;;;;;;;5006504;28;20030;-81
2022/11/22 01:50:46;;;;;;;22.92;10.18;;;;;;;;;;5013230;28;20052;-81
2022/11/22 01:53:15;;;;;;;19.77;8.98;;;;;;;;;;5014552;28;20530;-81
2022/11/22 01:55:41;;;;;;;17.83;7.90;;;;;;;;;;5007897;28;20030;-81
2022/11/22 01:58:09;;;;;;;16.92;8.20;;;;;;;;;;4994756;28;20112;-81
2022/11/22 02:00:36;;;;;;;18.23;8.35;;;;;;;;;;4998907;28;20105;-81
2022/11/22 02:03:03;;;;;;;13.18;8.25;;;;;;;;;;5000381;28;20018;-81
2022/11/22 02:05:32;;;;;;;17.85;8.27;;;;;;;;;;5013984;28;20026;-82
2022/11/22 02:08:07;;;;;;;21.52;9.48;;;;;;;;;;5002052;28;20385;-82
2022/11/22 02:10:34;;;;;;;16.08;7.90;;;;;;;;;;5001311;28;20100;-81
2022/11/22 02:13:01;;;;;;;20.17;8.65;;;;;;;;;;5000297;28;20030;-81
2022/11/22 02:15:28;;;;;;;16.38;8.80;;;;;;;;;;4994737;28;20465;-81
2022/11/22 02:17:56;;;;;;;20.48;9.77;;;;;;;;;;4994390;28;20035;-81
2022/11/22 02:20:22;;;;;;;16.80;9.52;;;;;;;;;;4994210;28;20137;-81
2022/11/22 02:23:00;;;;;;;20.42;9.00;;;;;;;;;;5003585;28;20026;-82
2022/11/22 02:25:32;;;;;;;17.95;9.90;;;;;;;;;;5012015;28;20468;-82
2022/11/22 02:27:58;;;;;;;19.38;8.88;;;;;;;;;;5013968;28;20084;-82
2022/11/22 02:30:24;;;;;;;17.70;8.75;;;;;;;;;;5013990;28;20030;-81
2022/11/22 02:32:50;;;;;;;19.95;9.63;;;;;;;;;;5014260;28;20022;-82
2022/11/22 02:35:16;;;;;;;19.35;9.70;;;;;;;;;;5013731;28;20142;-81
2022/11/22 02:37:42;;;;;;;20.05;9.63;;;;;;;;;;5000366;28;20439;-82
2022/11/22 02:40:12;;;;;;;20.52;8.73;;;;;;;;;;5007407;28;20472;-82
2022/11/22 02:42:39;;;;;;;22.98;9.80;;;;;;;;;;5013400;28;20025;-82
2022/11/22 02:45:06;;;;;;;14.07;7.70;;;;;;;;;;5001212;28;20026;-81
2022/11/22 02:47:32;;;;;;;16.58;7.93;;;;;;;;;;4993534;28;20027;-82
2022/11/22 02:49:58;;;;;;;23.00;9.70;;;;;;;;;;4994451;28;20448;-81
2022/11/22 02:52:24;;;;;;;18.08;8.88;;;;;;;;;;4994794;28;20505;-81
2022/11/22 02:54:50;;;;;;;18.00;8.85;;;;;;;;;;5001531;28;20026;-81
2022/11/22 02:57:16;;;;;;;19.55;9.88;;;;;;;;;;5001195;28;20034;-82
2022/11/22 02:59:42;;;;;;;19.23;9.57;;;;;;;;;;5007686;28;20030;-81
2022/11/22 03:02:08;;;;;;;18.63;9.68;;;;;;;;;;5000566;28;20023;-82
2022/11/22 03:04:34;;;;;;;20.33;10.20;;;;;;;;;;4994255;28;20026;-81
2022/11/22 03:07:00;;;;;;;19.65;10.00;;;;;;;;;;5000933;28;20026;-82
2022/11/22 03:12:23;;;;;;;18.02;9.93;;;;;;;;;;4994543;28;20038;-82
2022/11/22 03:14:50;;;;;;;19.83;9.18;;;;;;;;;;5011913;28;20030;-82
2022/11/22 03:17:16;;;;;;;21.80;10.90;;;;;;;;;;5010080;28;20034;-82
2022/11/22 03:19:42;;;;;;;16.90;9.95;;;;;;;;;;5003986;28;20057;-81
2022/11/22 03:22:08;;;;;;;18.77;9.80;;;;;;;;;;5013841;28;20022;-82
2022/11/22 03:24:34;;;;;;;19.45;9.90;;;;;;;;;;5004536;28;20026;-82
2022/11/22 03:27:00;;;;;;;17.55;10.13;;;;;;;;;;4997358;28;20105;-82
2022/11/22 03:29:26;;;;;;;22.13;10.30;;;;;;;;;;5004242;28;20057;-82
2022/11/22 03:31:52;;;;;;;21.42;10.18;;;;;;;;;;5000903;28;20026;-82
2022/11/22 03:34:18;;;;;;;24.65;10.98;;;;;;;;;;5006893;28;20081;-81
2022/11/22 03:36:45;;;;;;;16.77;9.38;;;;;;;;;;4994107;28;20026;-82
2022/11/22 03:39:11;;;;;;;21.20;10.50;;;;;;;;;;5002940;28;20068;-82
2022/11/22 03:41:37;;;;;;;22.58;10.48;;;;;;;;;;5000510;28;20030;-82
2022/11/22 03:44:03;;;;;;;20.20;10.40;;;;;;;;;;5010693;28;20026;-81
2022/11/22 03:46:29;;;;;;;19.00;10.00;;;;;;;;;;5003380;28;20029;-82
2022/11/22 03:48:55;;;;;;;16.95;10.35;;;;;;;;;;5017101;28;20033;-82
2022/11/22 03:51:21;;;;;;;17.80;10.68;;;;;;;;;;4998010;28;20591;-82
2022/11/22 03:53:47;;;;;;;20.60;9.98;;;;;;;;;;4998264;28;20057;-81
2022/11/22 03:56:13;;;;;;;18.17;10.13;;;;;;;;;;4997378;28;20101;-82
2022/11/22 03:58:53;;;;;;;17.33;9.68;;;;;;;;;;5009799;28;20461;-82
2022/11/22 04:01:19;;;;;;;18.33;9.98;;;;;;;;;;5002580;28;20552;-81
2022/11/22 04:03:45;;;;;;;17.67;10.20;;;;;;;;;;5007870;28;20108;-82
2022/11/22 04:06:11;;;;;;;19.83;10.63;;;;;;;;;;4997653;28;20029;-82
2022/11/22 04:08:37;;;;;;;19.73;10.45;;;;;;;;;;5016917;28;20026;-81
2022/11/22 04:11:03;;;;;;;20.30;11.85;;;;;;;;;;5014609;28;20033;-82
2022/11/22 04:16:17;;;;;;;17.08;10.13;;;;;;;;;;4997480;28;20057;-82
2022/11/22 04:18:43;;;;;;;17.13;10.93;;;;;;;;;;4996638;28;20481;-81
2022/11/22 04:26:37;;;;;;;26.50;10.35;;;;;;;;;;5009010;28;20084;-81
2022/11/22 04:29:03;;;;;;;21.42;12.13;;;;;;;;;;5017331;28;20034;-82
2022/11/22 04:34:14;;;;;;;18.55;10.27;;;;;;;;;;5017698;28;20092;-82
2022/11/22 04:36:40;;;;;;;25.77;11.90;;;;;;;;;;5017475;28;20021;-82
2022/11/22 04:39:06;;;;;;;17.27;8.45;;;;;;;;;;5017315;28;20476;-82
2022/11/22 04:41:32;;;;;;;20.38;11.00;;;;;;;;;;5015158;28;20108;-82
2022/11/22 04:46:42;;;;;;;25.17;11.43;;;;;;;;;;5005960;28;20029;-82
2022/11/22 04:49:08;;;;;;;18.52;10.82;;;;;;;;;;5002724;28;20030;-82
2022/11/22 04:54:19;;;;;;;19.40;10.60;;;;;;;;;;5012636;28;20029;-82
2022/11/22 04:56:45;;;;;;;20.63;10.68;;;;;;;;;;4997531;28;20029;-82
2022/11/22 04:59:11;;;;;;;18.65;10.45;;;;;;;;;;4998125;28;20388;-81
2022/11/22 05:01:37;;;;;;;19.92;10.93;;;;;;;;;;5006079;28;20491;-81
2022/11/22 05:04:03;;;;;;;22.98;10.95;;;;;;;;;;5011503;28;20026;-82
2022/11/22 05:06:29;;;;;;;17.10;10.65;;;;;;;;;;5014130;28;20060;-82
2022/11/22 05:08:56;;;;;;;20.58;10.98;;;;;;;;;;5005853;28;20502;-82
2022/11/22 05:11:22;;;;;;;18.83;10.35;;;;;;;;;;5016405;28;20026;-82
2022/11/22 05:13:47;;;;;;;22.27;10.25;;;;;;;;;;5016310;28;20149;-82
2022/11/22 05:16:14;;;;;;;20.55;10.32;;;;;;;;;;5015984;28;21839;-82
2022/11/22 05:18:41;;;;;;;20.88;10.15;;;;;;;;;;5012525;28;20038;-82
2022/11/22 05:21:08;;;;;;;19.23;10.30;;;;;;;;;;5007659;28;20054;-82
2022/11/22 05:23:53;;;;;;;17.88;10.50;;;;;;;;;;5016360;28;20109;-82
2022/11/22 05:26:19;;;;;;;21.95;11.10;;;;;;;;;;5016405;28;20018;-82
2022/11/22 05:28:45;;;;;;;18.33;10.00;;;;;;;;;;5016773;28;20038;-82
2022/11/22 05:31:13;;;;;;;19.45;10.25;;;;;;;;;;5012496;28;20026;-82
2022/11/22 05:33:40;;;;;;;17.02;8.77;;;;;;;;;;4997142;28;20085;-82
2022/11/22 05:36:07;;;;;;;19.88;10.65;;;;;;;;;;4997417;28;20072;-82
2022/11/22 05:38:45;;;;;;;23.02;10.60;;;;;;;;;;4996600;28;20045;-82
2022/11/22 05:41:12;;;;;;;18.65;10.45;;;;;;;;;;5009458;28;20061;-82
2022/11/22 05:43:39;;;;;;;17.08;9.98;;;;;;;;;;5016218;28;20022;-82
2022/11/22 05:46:09;;;;;;;15.98;9.65;;;;;;;;;;5015847;28;20543;-82
2022/11/22 05:48:35;;;;;;;;;;;;;;;;;;5016877;28;20404;-82
2022/11/22 05:51:08;;;;;;;24.95;9.50;;;;;;;;;;5001808;28;20004;-82
2022/11/22 05:53:35;;;;;;;18.55;8.88;;;;;;;;;;4996729;28;20101;-81
2022/11/22 05:56:08;;;;;;;18.58;9.18;;;;;;;;;;5000116;28;20026;-82
2022/11/22 05:58:43;;;;;;;15.50;8.75;;;;;;;;;;5005016;28;20117;-82
2022/11/22 06:01:11;;;;;;;17.67;8.50;;;;;;;;;;4999811;28;20026;-82
2022/11/22 06:03:37;;;;;;;19.05;9.02;;;;;;;;;;5015816;28;20030;-82
2022/11/22 06:06:04;;;;;;;15.60;7.93;;;;;;;;;;5003186;28;20415;-82
2022/11/22 06:08:30;;;;;;;16.17;8.43;;;;;;;;;;5001709;28;20025;-81
2022/11/22 06:11:03;;;;;;;17.38;8.73;;;;;;;;;;5014865;28;20037;-81
2022/11/22 06:13:32;;;;;;;19.60;8.95;;;;;;;;;;4995885;28;20023;-82
2022/11/22 06:15:59;;;;;;;17.20;8.23;;;;;;;;;;4995432;28;20027;-82
2022/11/22 06:18:25;;;;;;;22.10;8.32;;;;;;;;;;4997243;28;20085;-81
2022/11/22 06:20:51;;;;;;;12.52;7.70;;;;;;;;;;5007093;28;20055;-82
2022/11/22 06:23:17;;;;;;;18.02;8.18;;;;;;;;;;4995831;28;20357;-82
2022/11/22 06:25:43;;;;;;;17.75;7.57;;;;;;;;;;4994757;28;20077;-82
2022/11/22 06:28:09;;;;;;;17.58;7.22;;;;;;;;;;4996929;28;20105;-82
2022/11/22 06:30:35;;;;;;;13.02;7.35;;;;;;;;;;5007015;28;20369;-82
2022/11/22 06:33:01;;;;;;;16.23;7.35;;;;;;;;;;5015626;28;20068;-81
2022/11/22 06:35:26;;;;;;;15.95;7.40;;;;;;;;;;5014826;28;20030;-82
2022/11/22 06:37:52;;;;;;;12.50;6.80;;;;;;;;;;5014841;28;20365;-82
2022/11/22 06:40:18;;;;;;;14.07;6.90;;;;;;;;;;4997691;28;20109;-81
2022/11/22 06:42:44;;;;;;;15.25;6.03;;;;;;;;;;4996200;28;20029;-81
2022/11/22 06:45:11;;;;;;;14.23;6.53;;;;;;;;;;4998929;28;20029;-82
2022/11/22 06:47:36;;;;;;;16.40;5.60;;;;;;;;;;5013544;28;20049;-82
2022/11/22 06:50:03;;;;;;;18.92;5.75;;;;;;;;;;5001256;28;20464;-81
2022/11/22 06:52:28;;;;;;;15.40;5.63;;;;;;;;;;5016354;28;20033;-81
2022/11/22 06:54:54;;;;;;;15.07;6.10;;;;;;;;;;5015509;28;20030;-81
2022/11/22 06:57:21;;;;;;;9.95;4.65;;;;;;;;;;4998404;28;20393;-81
2022/11/22 06:59:47;;;;;;;11.70;4.68;;;;;;;;;;4993291;28;20030;-81
2022/11/22 07:02:13;;;;;;;11.38;4.28;;;;;;;;;;4994703;28;20046;-81
2022/11/22 07:04:38;;;;;;;9.27;4.15;;;;;;;;;;4997347;28;20795;-79
2022/11/22 07:07:04;;;;;;;16.83;5.07;;;;;;;;;;5006690;28;20081;-80
2022/11/22 07:09:30;;;;;;;19.70;4.30;;;;;;;;;;5007020;28;20034;-79
2022/11/22 07:11:56;;;;;;;12.07;3.85;;;;;;;;;;5002035;28;20033;-79
2022/11/22 07:14:22;;;;;;;14.05;4.38;;;;;;;;;;5004965;28;20525;-79
2022/11/22 07:16:48;;;;;;;8.90;4.13;;;;;;;;;;5016276;28;20018;-79
2022/11/22 07:19:14;;;;;;;16.73;3.38;;;;;;;;;;5017582;28;20506;-80
2022/11/22 07:21:40;;;;;;;13.93;4.10;;;;;;;;;;5004528;28;20030;-79
2022/11/22 07:24:07;;;;;;;11.05;3.42;;;;;;;;;;5020671;28;20029;-81
2022/11/22 07:26:33;;;;;;;10.90;2.67;;;;;;;;;;5013422;28;20026;-80
2022/11/22 07:29:00;;;;;;;13.20;3.85;;;;;;;;;;5009356;28;20031;-80
2022/11/22 07:31:27;;;;;;;11.85;3.17;;;;;;;;;;5013757;28;20034;-80
2022/11/22 07:33:54;;;;;;;14.15;3.15;;;;;;;;;;5014610;28;20468;-80
2022/11/22 07:36:21;;;;;;;10.52;3.30;;;;;;;;;;5002063;28;20064;-78
2022/11/22 07:38:47;;;;;;;11.15;3.25;;;;;;;;;;4997579;28;20105;-78
2022/11/22 07:41:14;;;;;;;8.82;3.22;;;;;;;;;;4997228;28;20027;-78
2022/11/22 07:43:40;;;;;;;10.23;2.90;;;;;;;;;;4997916;28;20097;-78
2022/11/22 07:46:07;;;;;;;16.98;3.72;;;;;;;;;;5001586;28;20030;-78
2022/11/22 07:48:33;;;;;;;9.77;4.00;;;;;;;;;;5016800;28;20033;-80
2022/11/22 07:51:04;;;;;;;15.05;4.70;;;;;;;;;;5003315;28;20018;-79
2022/11/22 07:53:30;;;;;;;10.98;4.93;;;;;;;;;;5015519;28;20049;-78
2022/11/22 07:55:56;;;;;;;10.50;4.35;;;;;;;;;;5017638;28;20435;-79
2022/11/22 07:58:22;;;;;;;10.85;5.20;;;;;;;;;;5004416;28;20026;-79
2022/11/22 08:00:48;;;;;;;15.48;6.90;;;;;;;;;;5013471;28;20041;-79
2022/11/22 08:03:14;;;;;;;19.77;6.40;;;;;;;;;;5003919;28;20026;-79
2022/11/22 08:05:40;;;;;;;12.77;4.82;;;;;;;;;;5013839;28;20560;-78
2022/11/22 08:08:06;;;;;;;12.48;6.45;;;;;;;;;;4998847;28;20149;-79
2022/11/22 08:10:32;;;;;;;18.15;5.63;;;;;;;;;;5006308;28;20792;-79
2022/11/22 08:12:59;;;;;;;16.27;6.10;;;;;;;;;;5016691;28;20095;-79
2022/11/22 08:15:25;;;;;;;15.05;5.95;;;;;;;;;;5009495;28;20026;-79
2022/11/22 08:17:51;;;;;;;13.63;5.43;;;;;;;;;;5013373;28;20030;-79
2022/11/22 08:20:17;;;;;;;13.35;4.97;;;;;;;;;;5005216;28;20123;-79
2022/11/22 08:22:43;;;;;;;15.75;4.65;;;;;;;;;;4998583;28;20030;-78
2022/11/22 08:25:12;;;;;;;13.27;4.90;;;;;;;;;;5000529;28;20036;-78
2022/11/22 08:27:41;;;;;;;12.38;4.50;;;;;;;;;;4997727;28;20080;-78
2022/11/22 08:30:08;;;;;;;12.45;4.40;;;;;;;;;;5007109;28;20124;-79
2022/11/22 08:32:34;;;;;;;12.05;5.28;;;;;;;;;;5016670;28;20026;-79
2022/11/22 08:35:00;;;;;;;10.10;3.97;;;;;;;;;;5005972;28;20080;-79
2022/11/22 08:37:26;;;;;;;15.77;5.28;;;;;;;;;;5003383;28;20034;-78
2022/11/22 08:39:52;;;;;;;11.30;5.05;;;;;;;;;;5001527;28;20037;-81
2022/11/22 08:42:18;;;;;;;13.70;4.82;;;;;;;;;;5015005;28;20030;-82
2022/11/22 08:44:44;;;;;;;11.07;4.38;;;;;;;;;;5019106;28;20029;-82
2022/11/22 08:47:10;;;;;;;14.98;5.55;;;;;;;;;;5005272;28;20034;-82
2022/11/22 08:49:36;;;;;;;11.10;4.95;;;;;;;;;;5018618;28;20108;-82
2022/11/22 08:52:02;;;;;;;10.57;5.05;;;;;;;;;;5002214;28;20034;-82
2022/11/22 08:54:28;;;;;;;8.93;4.80;;;;;;;;;;5015653;28;20105;-82
2022/11/22 08:56:54;;;;;;;12.55;4.43;;;;;;;;;;4999037;28;20037;-82
2022/11/22 08:59:20;;;;;;;9.50;4.40;;;;;;;;;;5003296;28;20199;-82
2022/11/22 09:01:46;;;;;;;11.23;4.65;;;;;;;;;;5000318;28;20030;-80
2022/11/22 09:04:12;;;;;;;10.05;4.30;;;;;;;;;;5004149;28;20030;-81
2022/11/22 09:06:38;;;;;;;12.45;4.60;;;;;;;;;;5009731;28;20361;-81
2022/11/22 09:09:04;;;;;;;11.60;4.70;;;;;;;;;;5017763;28;20025;-81
2022/11/22 09:11:30;;;;;;;9.43;4.00;;;;;;;;;;5014715;28;20092;-81
2022/11/22 09:13:56;;;;;;;12.75;4.20;;;;;;;;;;5016640;28;20380;-81
2022/11/22 09:16:22;;;;;;;11.05;3.85;;;;;;;;;;5009329;28;20034;-81
2022/11/22 09:18:51;;;;;;;6.90;3.17;;;;;;;;;;4999956;28;20042;-81
2022/11/22 09:21:18;;;;;;;11.95;3.95;;;;;;;;;;5006204;28;20042;-81
2022/11/22 09:23:45;;;;;;;9.23;3.17;;;;;;;;;;5009010;28;20053;-82
2022/11/22 09:26:12;;;;;;;10.10;4.03;;;;;;;;;;5011293;28;20033;-82
2022/11/22 09:28:38;;;;;;;8.75;3.60;;;;;;;;;;5004420;28;20121;-82
2022/11/22 09:31:15;;;;;;;9.23;3.92;;;;;;;;;;5000106;28;20480;-82
2022/11/22 09:33:43;;;;;;;9.85;4.03;;;;;;;;;;5008192;28;20032;-82
2022/11/22 09:36:11;;;;;;;16.10;4.80;;;;;;;;;;5001801;28;20050;-81
2022/11/22 09:38:37;;;;;;;9.05;3.13;;;;;;;;;;5001899;28;20060;-81
2022/11/22 09:41:15;;;;;;;8.93;3.17;;;;;;;;;;4994063;28;20081;-81
2022/11/22 09:43:56;;;;;;;6.60;3.60;;;;;;;;;;4995914;28;20034;-81
2022/11/22 09:46:22;;;;;;;8.95;3.13;;;;;;;;;;5009790;28;20030;-80
2022/11/22 09:48:48;;;;;;;5.38;3.13;;;;;;;;;;5004067;28;20034;-80
2022/11/22 09:51:16;;;;;;;5.43;3.50;;;;;;;;;;5002966;28;20061;-80
2022/11/22 09:54:03;;;;;;;5.68;3.22;;;;;;;;;;4997723;28;20057;-80
2022/11/22 09:56:29;;;;;;;10.13;3.45;;;;;;;;;;4995875;28;20496;-80
2022/11/22 09:59:00;;;;;;;8.25;3.60;;;;;;;;;;5006673;28;20034;-80
2022/11/22 10:01:27;;;;;;;7.28;3.33;;;;;;;;;;5009349;28;20038;-82
2022/11/22 10:03:53;;;;;;;4.65;2.70;;;;;;;;;;5010375;28;20137;-82
2022/11/22 10:06:21;;;;;;;6.43;2.60;;;;;;;;;;4997738;28;20054;-81
2022/11/22 10:08:54;;;;;;;6.95;3.25;;;;;;;;;;5014966;28;20093;-81
2022/11/22 10:11:34;;;;;;;7.25;3.30;;;;;;;;;;5012837;28;20025;-80
2022/11/22 10:14:19;;;;;;;9.18;3.17;;;;;;;;;;5006172;28;20019;-81
2022/11/22 10:16:52;;;;;;;5.53;3.08;;;;;;;;;;5003399;28;20044;-80
2022/11/22 10:19:23;;;;;;;7.00;2.95;;;;;;;;;;4995871;28;20113;-81
2022/11/22 10:21:49;;;;;;;7.82;3.25;;;;;;;;;;5001025;28;20053;-80
2022/11/22 10:24:16;;;;;;;5.75;2.83;;;;;;;;;;5008630;28;20052;-80
2022/11/22 10:26:43;;;;;;;8.40;3.10;;;;;;;;;;5007399;28;20061;-80
2022/11/22 10:29:22;;;;;;;5.15;3.03;;;;;;;;;;5008486;28;20023;-80
2022/11/22 10:31:47;;;;;;;7.93;3.17;;;;;;;;;;4998832;28;20057;-79
2022/11/22 10:34:30;;;;;;;6.10;2.83;;;;;;;;;;5010282;28;20392;-79
2022/11/22 10:37:16;;;;;;;6.35;3.22;;;;;;;;;;4996779;28;20489;-80
2022/11/22 10:39:47;;;;;;;7.50;3.08;;;;;;;;;;5009693;28;20547;-79
2022/11/22 10:42:16;;;;;;;8.45;3.25;;;;;;;;;;5003399;28;20046;-79
2022/11/22 10:44:50;;;;;;;5.63;3.05;;;;;;;;;;5009314;28;20022;-81
2022/11/22 10:47:31;;;;;;;5.35;2.70;;;;;;;;;;5008040;28;20030;-80
2022/11/22 10:50:02;;;;;;;8.43;3.08;;;;;;;;;;5007416;28;20038;-81
2022/11/22 10:52:52;;;;;;;9.68;3.28;;;;;;;;;;5009889;28;20499;-80
2022/11/22 10:55:26;;;;;;;5.80;3.10;;;;;;;;;;5007543;28;20503;-79
2022/11/22 10:57:55;;;;;;;5.10;3.35;;;;;;;;;;5001688;28;20022;-79
2022/11/22 11:00:23;;;;;;;6.70;3.78;;;;;;;;;;4999205;28;20031;-79
2022/11/22 11:03:01;;;;;;;9.55;3.83;;;;;;;;;;5002845;28;20658;-80
2022/11/22 11:05:37;;;;;;;10.50;3.63;;;;;;;;;;5006891;28;20036;-80
2022/11/22 11:08:04;;;;;;;6.70;3.35;;;;;;;;;;5011930;28;20030;-79
2022/11/22 11:10:35;;;;;;;8.80;3.20;;;;;;;;;;4998879;28;20018;-80
2022/11/22 11:13:06;;;;;;;9.23;3.45;;;;;;;;;;5014986;28;20028;-80
2022/11/22 11:15:50;;;;;;;8.40;3.00;;;;;;;;;;5018948;28;20038;-79
2022/11/22 11:18:35;;;;;;;5.97;3.78;;;;;;;;;;5015660;28;20030;-79
2022/11/22 11:21:01;;;;;;;5.35;3.10;;;;;;;;;;5012379;28;20057;-79
2022/11/22 11:23:27;;;;;;;6.68;3.15;;;;;;;;;;5015406;28;20026;-79
2022/11/22 11:25:53;;;;;;;7.10;3.28;;;;;;;;;;5006262;28;20018;-79
2022/11/22 11:28:23;;;;;;;9.00;3.63;;;;;;;;;;5004840;28;20457;-79
2022/11/22 11:30:49;;;;;;;;;;;;;;;;;;5017912;28;20436;-81
2022/11/22 11:33:37;;;;;;;8.27;3.25;;;;;;;;;;4999467;28;19913;-80
2022/11/22 11:36:23;;;;;;;6.57;2.58;;;;;;;;;;5012375;28;20034;-80
2022/11/22 11:38:53;;;;;;;5.85;2.80;;;;;;;;;;5006223;28;20049;-80
2022/11/22 11:41:25;;;;;;;5.80;2.47;;;;;;;;;;5006980;28;20109;-80
2022/11/22 11:43:52;;;;;;;9.02;3.00;;;;;;;;;;5011174;28;20053;-80
2022/11/22 11:46:22;;;;;;;7.82;2.97;;;;;;;;;;5009360;28;20026;-80
2022/11/22 11:48:49;;;;;;;6.60;2.47;;;;;;;;;;5000423;28;20049;-81
2022/11/22 11:51:21;;;;;;;10.18;2.95;;;;;;;;;;5011219;28;20020;-81
2022/11/22 11:53:53;;;;;;;5.30;2.40;;;;;;;;;;5014843;28;20503;-81
2022/11/22 11:59:26;;;;;;;6.95;2.65;;;;;;;;;;5011292;28;20079;-79
2022/11/22 12:01:54;;;;;;;5.82;2.50;;;;;;;;;;5022599;28;20033;-78
2022/11/22 12:04:22;;;;;;;7.25;2.75;;;;;;;;;;5005960;28;20080;-79
2022/11/22 12:06:53;;;;;;;4.90;2.15;;;;;;;;;;5011197;28;20026;-81
2022/11/22 12:09:27;;;;;;;10.48;2.72;;;;;;;;;;5006665;28;20423;-81
2022/11/22 12:12:06;;;;;;;4.85;2.40;;;;;;;;;;5003303;28;20025;-80
2022/11/22 12:14:33;;;;;;;8.20;2.53;;;;;;;;;;5005299;28;20026;-82
2022/11/22 12:17:03;;;;;;;6.07;2.30;;;;;;;;;;5010224;28;20022;-81
2022/11/22 12:19:50;;;;;;;5.50;2.78;;;;;;;;;;5002614;28;20042;-80
2022/11/22 12:22:29;;;;;;;3.53;1.95;;;;;;;;;;5012007;28;20030;-81
2022/11/22 12:25:00;;;;;;;9.45;2.38;;;;;;;;;;5015092;28;20026;-82
2022/11/22 12:27:26;;;;;;;5.57;2.58;;;;;;;;;;5015398;28;20033;-82
2022/11/22 12:29:53;;;;;;;6.05;1.95;;;;;;;;;;4998224;28;20026;-82
2022/11/22 12:32:26;;;;;;;6.60;2.20;;;;;;;;;;5013606;28;20022;-82
2022/11/22 12:34:55;;;;;;;5.90;2.20;;;;;;;;;;5008591;28;20108;-82
2022/11/22 12:37:41;;;;;;;7.88;2.17;;;;;;;;;;5002748;28;20021;-82
2022/11/22 12:40:16;;;;;;;7.90;2.33;;;;;;;;;;5001808;28;20042;-82
2022/11/22 12:42:45;;;;;;;4.28;2.22;;;;;;;;;;5015507;28;20084;-81
2022/11/22 12:45:24;;;;;;;4.95;2.30;;;;;;;;;;5001966;28;20023;-81
2022/11/22 12:47:51;;;;;;;4.47;2.42;;;;;;;;;;5000380;28;20085;-81
2022/11/22 12:50:32;;;;;;;5.78;2.30;;;;;;;;;;5005410;28;20400;-82
2022/11/22 12:53:02;;;;;;;5.55;2.10;;;;;;;;;;5016559;28;20499;-81
2022/11/22 12:55:35;;;;;;;;;;;;;;;;;;4997845;28;20053;-82
2022/11/22 12:58:04;;;;;;;5.22;1.80;;;;;;;;;;5009504;28;19992;-82
2022/11/22 13:00:34;;;;;;;4.55;1.90;;;;;;;;;;5016654;28;20112;-81
2022/11/22 13:03:13;;;;;;;6.40;2.13;;;;;;;;;;5015115;28;20030;-81
2022/11/22 13:05:46;;;;;;;5.27;2.00;;;;;;;;;;5009567;28;20022;-80
2022/11/22 13:08:31;;;;;;;6.90;3.03;;;;;;;;;;5009874;28;20330;-81
2022/11/22 13:11:15;;;;;;;3.63;1.90;;;;;;;;;;5012030;28;20109;-80
2022/11/22 13:13:46;;;;;;;4.63;2.08;;;;;;;;;;5013534;28;20548;-80
2022/11/22 13:16:13;;;;;;;8.10;2.40;;;;;;;;;;5014810;28;20464;-80
2022/11/22 13:18:43;;;;;;;4.45;1.83;;;;;;;;;;4998059;28;20465;-80
2022/11/22 13:21:19;;;;;;;4.03;2.20;;;;;;;;;;5000547;28;20082;-81
2022/11/22 13:24:00;;;;;;;8.23;2.08;;;;;;;;;;5009449;28;20026;-81
2022/11/22 13:26:44;;;;;;;7.45;2.50;;;;;;;;;;5011525;28;20035;-81
2022/11/22 13:29:22;;;;;;;8.38;2.10;;;;;;;;;;5003293;28;20031;-81
2022/11/22 13:32:07;;;;;;;5.80;2.00;;;;;;;;;;5001686;28;20037;-81
2022/11/22 13:34:42;;;;;;;9.77;2.25;;;;;;;;;;5047121;28;20464;-77
2022/11/22 13:37:13;;;;;;;3.47;1.85;;;;;;;;;;5019358;28;20037;-77
2022/11/22 13:39:44;;;;;;;5.50;2.00;;;;;;;;;;5040336;28;20551;-77
2022/11/22 13:42:12;;;;;;;4.70;1.90;;;;;;;;;;5031458;28;20065;-76
2022/11/22 13:44:49;;;;;;;5.22;1.77;;;;;;;;;;5028214;28;20042;-77
2022/11/22 13:47:24;;;;;;;6.95;1.80;;;;;;;;;;5028438;28;20117;-77
2022/11/22 13:49:52;;;;;;;3.90;1.70;;;;;;;;;;5035304;28;20513;-77
2022/11/22 13:52:18;;;;;;;4.65;1.90;;;;;;;;;;5027783;28;20083;-77
2022/11/22 13:54:47;;;;;;;4.38;2.08;;;;;;;;;;5026274;28;20069;-77
2022/11/22 13:57:28;;;;;;;4.88;2.17;;;;;;;;;;5030153;28;20038;-77
2022/11/22 14:00:13;;;;;;;4.82;1.80;;;;;;;;;;5013509;28;20089;-79
2022/11/22 14:02:44;;;;;;;7.30;2.00;;;;;;;;;;5033563;28;20038;-78
2022/11/22 14:05:28;;;;;;;5.10;1.63;;;;;;;;;;5040935;28;20033;-78
2022/11/22 14:07:56;;;;;;;4.85;1.98;;;;;;;;;;5027890;28;20033;-78
2022/11/22 14:10:31;;;;;;;3.30;1.70;;;;;;;;;;5035292;28;20034;-78
2022/11/22 14:13:09;;;;;;;6.65;1.98;;;;;;;;;;5039542;28;20044;-79
2022/11/22 14:15:51;;;;;;;6.40;2.30;;;;;;;;;;5030918;28;20030;-78
2022/11/22 14:18:26;;;;;;;6.85;1.85;;;;;;;;;;5030390;28;20033;-79
2022/11/22 14:21:01;;;;;;;4.25;1.70;;;;;;;;;;5031367;28;20057;-76
2022/11/22 14:23:30;;;;;;;4.15;2.08;;;;;;;;;;5029196;28;20053;-77
2022/11/22 14:26:15;;;;;;;8.27;1.70;;;;;;;;;;5037570;28;20511;-77
2022/11/22 14:28:47;;;;;;;5.43;2.03;;;;;;;;;;5034062;28;20029;-78
2022/11/22 14:31:20;;;;;;;4.72;1.90;;;;;;;;;;5036693;28;20032;-78
2022/11/22 14:34:04;;;;;;;3.95;1.95;;;;;;;;;;5035262;28;20101;-78
2022/11/22 14:36:30;;;;;;;5.88;1.83;;;;;;;;;;5035238;28;20030;-78
2022/11/22 14:38:56;;;;;;;5.80;2.22;;;;;;;;;;5031068;28;20370;-79
2022/11/22 14:41:25;;;;;;;2.50;1.42;;;;;;;;;;5029083;28;20026;-79
2022/11/22 14:44:08;;;;;;;5.45;1.85;;;;;;;;;;5028223;28;20030;-80
2022/11/22 14:46:36;;;;;;;4.90;1.70;;;;;;;;;;5011019;28;20038;-79
2022/11/22 14:49:37;;;;;;;4.68;1.70;;;;;;;;;;5018020;28;20388;-79
2022/11/22 14:52:05;;;;;;;5.97;1.50;;;;;;;;;;4965957;28;20497;-80
2022/11/22 14:54:42;;;;;;;4.80;1.50;;;;;;;;;;5003914;28;20488;-79
2022/11/22 14:57:12;;;;;;;4.28;1.60;;;;;;;;;;5015868;28;20030;-79
2022/11/22 14:59:57;;;;;;;1.33;1.17;;;;;;;;;;5016446;28;20029;-79
2022/11/22 15:02:22;;;;;;;2.55;1.33;;;;;;;;;;5016849;28;20021;-79
2022/11/22 15:04:54;;;;;;;5.13;2.13;;;;;;;;;;5027889;28;20067;-79
2022/11/22 15:07:20;;;;;;;4.63;1.65;;;;;;;;;;5018532;28;20034;-78